createdAt,value
2019-02-23T00:01:07.425Z,99.90
2019-02-23T00:03:23.799Z,99.90
2019-02-23T00:05:41.213Z,99.90
2019-02-23T00:07:50.372Z,99.90
2019-02-23T00:10:13.785Z,99.90
2019-02-23T00:15:15.348Z,99.90
2019-02-23T00:17:23.774Z,99.90
2019-02-23T00:19:30.090Z,99.90
2019-02-23T00:21:40.939Z,99.90
2019-02-23T00:23:54.438Z,99.90
2019-02-23T00:26:04.908Z,99.90
2019-02-23T00:28:15.077Z,99.90
2019-02-23T00:30:36.009Z,99.90
2019-02-23T00:32:51.323Z,99.90
2019-02-23T00:35:35.740Z,99.90
2019-02-23T00:38:05.778Z,99.90
2019-02-23T00:40:28.663Z,99.90
2019-02-23T00:42:37.247Z,99.90
2019-02-23T00:45:00.783Z,99.90
2019-02-23T00:47:16.153Z,99.90
2019-02-23T00:49:35.790Z,99.90
2019-02-23T00:51:51.790Z,99.90
2019-02-23T00:54:01.450Z,99.90
2019-02-23T00:56:50.114Z,99.90
2019-02-23T00:59:08.088Z,99.90
2019-02-23T01:01:24.399Z,99.90
2019-02-23T01:06:03.978Z,99.90
2019-02-23T01:08:21.908Z,99.90
2019-02-23T01:11:02.250Z,99.90
2019-02-23T01:13:07.680Z,99.90
2019-02-23T01:15:31.895Z,99.90
2019-02-23T01:20:40.251Z,99.90
2019-02-23T01:22:59.635Z,99.90
2019-02-23T01:25:09.160Z,99.90
2019-02-23T01:27:26.198Z,99.90
2019-02-23T01:29:36.589Z,99.90
2019-02-23T01:32:09.822Z,99.90
2019-02-23T01:34:46.178Z,99.90
2019-02-23T01:36:56.635Z,99.90
2019-02-23T01:39:15.491Z,99.90
2019-02-23T01:41:32.830Z,99.90
2019-02-23T01:44:09.805Z,99.90
2019-02-23T01:46:30.670Z,99.90
2019-02-23T01:49:02.037Z,99.90
2019-02-23T01:51:08.119Z,99.90
2019-02-23T01:53:27.305Z,99.90
2019-02-23T01:55:39.903Z,99.90
2019-02-23T01:57:52.100Z,99.90
2019-02-23T02:00:07.591Z,99.90
2019-02-23T02:02:31.182Z,99.90
2019-02-23T02:04:42.941Z,99.90
2019-02-23T02:06:52.446Z,99.90
2019-02-23T02:08:59.576Z,99.90
2019-02-23T02:11:13.975Z,99.90
2019-02-23T02:13:31.263Z,99.90
2019-02-23T02:15:41.870Z,99.90
2019-02-23T02:17:54.159Z,99.90
2019-02-23T02:20:19.853Z,99.90
2019-02-23T02:22:29.351Z,99.90
2019-02-23T02:24:56.304Z,99.90
2019-02-23T02:27:33.163Z,99.90
2019-02-23T02:29:41.255Z,99.90
2019-02-23T02:32:01.858Z,99.90
2019-02-23T02:34:21.109Z,99.90
2019-02-23T02:36:30.290Z,99.90
2019-02-23T02:38:53.197Z,99.90
2019-02-23T02:41:06.412Z,99.90
2019-02-23T02:43:24.188Z,99.90
2019-02-23T02:45:41.172Z,99.90
2019-02-23T02:48:07.542Z,99.90
2019-02-23T02:50:23.821Z,99.90
2019-02-23T02:52:31.936Z,99.90
2019-02-23T02:54:48.711Z,99.90
2019-02-23T02:57:05.556Z,99.90
2019-02-23T02:59:16.662Z,99.90
2019-02-23T03:01:40.977Z,99.90
2019-02-23T03:03:56.160Z,99.90
2019-02-23T03:06:05.558Z,99.90
2019-02-23T03:08:16.577Z,99.90
2019-02-23T03:10:58.374Z,99.90
2019-02-23T03:13:13.212Z,99.90
2019-02-23T03:15:48.858Z,99.90
2019-02-23T03:18:07.179Z,99.90
2019-02-23T03:20:36.898Z,99.90
2019-02-23T03:23:00.182Z,99.90
2019-02-23T03:25:39.818Z,99.90
2019-02-23T03:27:51.691Z,99.90
2019-02-23T03:30:08.007Z,99.90
2019-02-23T03:32:28.867Z,99.90
2019-02-23T03:35:00.679Z,99.90
2019-02-23T03:37:19.647Z,99.90
2019-02-23T03:39:49.255Z,99.90
2019-02-23T03:42:23.486Z,99.90
2019-02-23T03:44:40.659Z,99.90
2019-02-23T03:47:12.145Z,99.90
2019-02-23T03:49:26.138Z,99.90
2019-02-23T03:51:40.134Z,99.90
2019-02-23T03:53:53.654Z,99.90
2019-02-23T03:56:01.216Z,99.90
2019-02-23T03:58:15.354Z,99.90
2019-02-23T04:00:24.753Z,99.90
2019-02-23T04:02:35.452Z,99.90
2019-02-23T04:05:11.231Z,99.90
2019-02-23T04:07:21.950Z,99.90
2019-02-23T04:09:56.297Z,99.90
2019-02-23T04:12:08.239Z,99.90
2019-02-23T04:14:16.972Z,99.90
2019-02-23T04:16:23.703Z,99.90
2019-02-23T04:18:45.512Z,99.90
2019-02-23T04:21:02.061Z,99.90
2019-02-23T04:23:23.223Z,99.90
2019-02-23T04:25:29.595Z,99.90
2019-02-23T04:27:35.126Z,99.90
2019-02-23T04:29:40.688Z,99.90
2019-02-23T04:31:54.464Z,99.90
2019-02-23T04:36:48.530Z,99.90
2019-02-23T04:39:04.365Z,99.90
2019-02-23T04:41:09.552Z,99.90
2019-02-23T04:43:33.663Z,99.90
2019-02-23T04:45:48.553Z,99.90
2019-02-23T04:48:16.902Z,99.90
2019-02-23T04:50:48.789Z,99.90
2019-02-23T04:53:04.879Z,99.90
2019-02-23T04:55:13.624Z,99.90
2019-02-23T04:57:19.394Z,99.90
2019-02-23T04:59:26.533Z,99.90
2019-02-23T05:01:44.969Z,99.90
2019-02-23T05:03:51.761Z,99.90
2019-02-23T05:05:56.822Z,99.90
2019-02-23T05:08:04.781Z,99.90
2019-02-23T05:10:10.099Z,99.90
2019-02-23T05:12:15.621Z,99.90
2019-02-23T05:14:24.088Z,99.90
2019-02-23T05:16:41.998Z,99.90
2019-02-23T05:18:50.785Z,99.90
2019-02-23T05:21:02.674Z,99.90
2019-02-23T05:23:23.564Z,99.90
2019-02-23T05:25:31.954Z,99.90
2019-02-23T05:27:36.912Z,99.90
2019-02-23T05:29:43.530Z,99.90
2019-02-23T05:32:01.488Z,99.90
2019-02-23T05:34:21.941Z,99.90
2019-02-23T05:36:35.749Z,99.90
2019-02-23T05:38:54.445Z,99.90
2019-02-23T05:41:12.082Z,99.90
2019-02-23T05:43:31.404Z,99.90
2019-02-23T05:45:49.741Z,99.90
2019-02-23T05:48:09.948Z,99.90
2019-02-23T05:50:17.015Z,99.90
2019-02-23T05:52:42.143Z,99.90
2019-02-23T05:54:57.007Z,99.90
2019-02-23T05:57:09.240Z,99.90
2019-02-23T05:59:27.378Z,99.90
2019-02-23T06:01:38.715Z,99.90
2019-02-23T06:03:50.107Z,99.90
2019-02-23T06:06:09.984Z,99.90
2019-02-23T06:08:21.209Z,99.90
2019-02-23T06:10:33.665Z,99.90
2019-02-23T06:12:56.656Z,99.90
2019-02-23T06:15:07.435Z,99.90
2019-02-23T06:17:28.624Z,99.90
2019-02-23T06:20:22.251Z,99.90
2019-02-23T06:22:42.183Z,99.90
2019-02-23T06:25:13.784Z,99.90
2019-02-23T06:27:19.538Z,99.90
2019-02-23T06:29:33.412Z,99.90
2019-02-23T06:31:54.860Z,99.90
2019-02-23T06:34:16.119Z,99.90
2019-02-23T06:36:30.286Z,99.90
2019-02-23T06:38:39.184Z,99.90
2019-02-23T06:40:49.549Z,99.90
2019-02-23T06:42:57.744Z,99.90
2019-02-23T06:45:05.405Z,99.90
2019-02-23T06:47:24.683Z,99.90
2019-02-23T06:49:40.825Z,99.90
2019-02-23T06:51:50.681Z,99.90
2019-02-23T06:54:23.348Z,99.90
2019-02-23T06:56:31.718Z,99.90
2019-02-23T06:58:45.323Z,99.90
2019-02-23T07:00:55.917Z,99.90
2019-02-23T07:03:12.418Z,99.90
2019-02-23T07:05:48.473Z,99.90
2019-02-23T07:08:32.259Z,99.90
2019-02-23T07:10:59.180Z,99.90
2019-02-23T07:13:07.257Z,99.90
2019-02-23T07:15:18.295Z,99.90
2019-02-23T07:17:33.631Z,99.90
2019-02-23T07:22:27.684Z,99.90
2019-02-23T07:24:33.393Z,99.90
2019-02-23T07:26:39.099Z,99.90
2019-02-23T07:28:50.227Z,99.90
2019-02-23T07:31:02.043Z,99.90
2019-02-23T07:33:29.575Z,99.90
2019-02-23T07:35:37.452Z,99.90
2019-02-23T07:37:54.512Z,99.90
2019-02-23T07:40:10.326Z,99.90
2019-02-23T07:42:19.232Z,99.80
2019-02-23T07:44:30.080Z,99.70
2019-02-23T07:46:44.796Z,99.40
2019-02-23T07:48:57.277Z,99.50
2019-02-23T07:51:25.855Z,99.50
2019-02-23T07:53:39.364Z,99.20
2019-02-23T07:55:58.562Z,98.80
2019-02-23T07:58:11.579Z,99.00
2019-02-23T08:00:42.673Z,99.00
2019-02-23T08:02:55.953Z,99.50
2019-02-23T08:05:15.345Z,99.20
2019-02-23T08:07:36.299Z,99.30
2019-02-23T08:09:49.772Z,99.70
2019-02-23T08:12:07.169Z,99.70
2019-02-23T08:14:48.958Z,99.90
2019-02-23T08:16:48.702Z,99.70
2019-02-23T08:19:06.576Z,99.20
2019-02-23T08:21:49.184Z,98.90
2019-02-23T08:23:37.141Z,98.80
2019-02-23T08:26:05.334Z,98.20
2019-02-23T08:28:21.468Z,98.40
2019-02-23T08:30:36.282Z,98.50
2019-02-23T08:32:42.719Z,98.20
2019-02-23T08:34:50.846Z,97.90
2019-02-23T08:37:04.773Z,97.50
2019-02-23T08:39:15.300Z,97.90
2019-02-23T08:41:21.736Z,98.10
2019-02-23T08:43:32.031Z,97.60
2019-02-23T08:45:51.281Z,97.60
2019-02-23T08:48:13.148Z,97.20
2019-02-23T08:50:22.971Z,97.20
2019-02-23T08:52:33.921Z,96.90
2019-02-23T08:54:51.255Z,97.10
2019-02-23T08:57:17.341Z,97.00
2019-02-23T08:59:39.414Z,96.90
2019-02-23T09:01:50.684Z,96.90
2019-02-23T09:04:11.381Z,97.10
2019-02-23T09:06:26.435Z,97.00
2019-02-23T09:08:42.027Z,97.20
2019-02-23T09:11:16.538Z,97.10
2019-02-23T09:13:28.839Z,96.80
2019-02-23T09:15:42.217Z,96.40
2019-02-23T09:17:48.947Z,96.00
2019-02-23T09:20:02.474Z,95.70
2019-02-23T09:22:12.752Z,95.50
2019-02-23T09:24:29.740Z,95.60
2019-02-23T09:26:48.312Z,95.40
2019-02-23T09:28:59.255Z,95.10
2019-02-23T09:31:16.697Z,94.90
2019-02-23T09:33:35.767Z,94.60
2019-02-23T09:35:59.830Z,94.90
2019-02-23T09:38:15.905Z,95.00
2019-02-23T09:40:31.157Z,94.40
2019-02-23T09:42:41.699Z,94.30
2019-02-23T09:44:55.691Z,94.60
2019-02-23T09:47:19.307Z,94.20
2019-02-23T09:49:35.385Z,93.90
2019-02-23T09:51:43.061Z,93.70
2019-02-23T09:53:57.168Z,93.70
2019-02-23T09:56:11.326Z,93.50
2019-02-23T09:58:27.819Z,93.30
2019-02-23T10:00:38.232Z,93.00
2019-02-23T10:03:01.178Z,93.10
2019-02-23T10:05:07.024Z,93.20
2019-02-23T10:07:18.177Z,92.60
2019-02-23T10:09:23.908Z,92.90
2019-02-23T10:11:29.870Z,92.70
2019-02-23T10:13:36.253Z,92.90
2019-02-23T10:15:50.122Z,92.80
2019-02-23T10:18:01.051Z,92.30
2019-02-23T10:20:19.388Z,92.30
2019-02-23T10:22:46.208Z,92.10
2019-02-23T10:25:03.029Z,91.90
2019-02-23T10:27:29.296Z,92.00
2019-02-23T10:29:45.401Z,91.40
2019-02-23T10:31:52.429Z,91.70
2019-02-23T10:34:05.521Z,91.20
2019-02-23T10:36:25.338Z,91.50
2019-02-23T10:38:45.212Z,91.30
2019-02-23T10:41:03.445Z,91.30
2019-02-23T10:43:11.837Z,91.30
2019-02-23T10:45:25.167Z,90.90
2019-02-23T10:47:43.961Z,90.70
2019-02-23T10:50:05.827Z,90.80
2019-02-23T10:52:16.042Z,90.80
2019-02-23T10:54:33.724Z,90.80
2019-02-23T10:56:52.458Z,90.20
2019-02-23T10:59:25.376Z,90.30
2019-02-23T11:01:57.091Z,90.60
2019-02-23T11:04:13.548Z,90.40
2019-02-23T11:06:24.330Z,90.30
2019-02-23T11:08:35.669Z,90.50
2019-02-23T11:10:55.953Z,90.30
2019-02-23T11:13:09.907Z,90.00
2019-02-23T11:15:50.133Z,90.10
2019-02-23T11:18:17.353Z,88.80
2019-02-23T11:20:32.857Z,89.00
2019-02-23T11:22:53.345Z,88.30
2019-02-23T11:25:19.187Z,87.70
2019-02-23T11:27:27.257Z,88.70
2019-02-23T11:30:00.476Z,88.00
2019-02-23T11:32:16.367Z,88.30
2019-02-23T11:34:23.883Z,88.60
2019-02-23T11:36:34.152Z,88.20
2019-02-23T11:38:55.862Z,87.70
2019-02-23T11:41:08.654Z,87.50
2019-02-23T11:43:22.500Z,88.30
2019-02-23T11:45:35.540Z,88.30
2019-02-23T11:47:42.952Z,88.20
2019-02-23T11:49:58.373Z,87.70
2019-02-23T11:52:17.405Z,87.80
2019-02-23T11:54:23.436Z,87.30
2019-02-23T11:56:29.812Z,87.00
2019-02-23T11:58:49.702Z,86.80
2019-02-23T12:01:16.083Z,86.20
2019-02-23T12:03:41.007Z,86.80
2019-02-23T12:06:12.706Z,86.20
2019-02-23T12:08:29.582Z,85.90
2019-02-23T12:10:42.871Z,85.80
2019-02-23T12:13:01.237Z,86.10
2019-02-23T12:15:13.653Z,85.40
2019-02-23T12:17:31.091Z,85.10
2019-02-23T12:19:46.907Z,83.90
2019-02-23T12:24:25.354Z,83.50
2019-02-23T12:26:42.992Z,82.30
2019-02-23T12:28:49.963Z,81.40
2019-02-23T12:31:09.243Z,80.70
2019-02-23T12:33:33.179Z,80.70
2019-02-23T12:35:41.607Z,81.10
2019-02-23T12:37:56.221Z,80.80
2019-02-23T12:40:21.476Z,81.10
2019-02-23T12:42:35.506Z,81.60
2019-02-23T12:45:13.519Z,79.10
2019-02-23T12:47:41.312Z,79.30
2019-02-23T12:50:01.721Z,79.40
2019-02-23T12:52:13.342Z,78.80
2019-02-23T12:54:29.385Z,79.00
2019-02-23T12:56:46.881Z,78.20
2019-02-23T12:59:37.553Z,78.80
2019-02-23T13:04:22.532Z,78.30
2019-02-23T13:06:37.560Z,77.40
2019-02-23T13:09:34.209Z,76.20
2019-02-23T13:11:43.843Z,75.50
2019-02-23T13:14:21.343Z,70.00
2019-02-23T13:16:48.545Z,68.50
2019-02-23T13:20:13.973Z,66.40
2019-02-23T13:23:21.539Z,66.20
2019-02-23T13:25:57.364Z,66.20
2019-02-23T13:28:52.658Z,64.50
2019-02-23T13:31:52.679Z,65.50
2019-02-23T13:34:48.708Z,66.20
2019-02-23T13:37:52.525Z,66.00
2019-02-23T13:40:52.039Z,65.20
2019-02-23T13:43:33.217Z,64.90
2019-02-23T13:46:10.598Z,64.70
2019-02-23T13:48:54.442Z,65.80
2019-02-23T13:51:50.606Z,65.90
2019-02-23T13:54:45.291Z,66.70
2019-02-23T13:57:49.557Z,66.60
2019-02-23T14:03:31.902Z,67.40
2019-02-23T14:06:07.309Z,66.80
2019-02-23T14:08:55.223Z,66.70
2019-02-23T14:11:40.063Z,65.30
2019-02-23T14:14:14.839Z,65.00
2019-02-23T14:16:53.383Z,64.70
2019-02-23T14:19:56.314Z,64.50
2019-02-23T14:22:59.792Z,64.30
2019-02-23T14:25:59.770Z,63.80
2019-02-23T14:28:58.594Z,63.30
2019-02-23T14:32:07.496Z,64.60
2019-02-23T14:34:50.575Z,64.00
2019-02-23T14:37:32.999Z,63.10
2019-02-23T14:40:16.647Z,61.00
2019-02-23T14:43:17.320Z,62.20
2019-02-23T14:45:57.055Z,62.20
2019-02-23T14:48:41.906Z,61.40
2019-02-23T14:51:27.214Z,60.50
2019-02-23T14:54:28.681Z,60.70
2019-02-23T14:57:38.515Z,60.10
2019-02-23T15:03:37.616Z,63.80
2019-02-23T15:06:27.480Z,63.80
2019-02-23T15:08:57.968Z,64.60
2019-02-23T15:11:40.877Z,64.80
2019-02-23T15:14:29.440Z,64.70
2019-02-23T15:17:16.691Z,64.20
2019-02-23T15:20:20.721Z,64.70
2019-02-23T15:23:26.843Z,64.70
2019-02-23T15:26:14.066Z,66.00
2019-02-23T15:28:55.524Z,66.30
2019-02-23T15:32:01.698Z,66.40
2019-02-23T15:35:14.666Z,64.50
2019-02-23T15:37:52.406Z,65.10
2019-02-23T15:40:43.936Z,66.60
2019-02-23T15:43:52.802Z,67.70
2019-02-23T15:47:02.861Z,68.50
2019-02-23T15:49:46.788Z,68.40
2019-02-23T15:52:14.650Z,68.20
2019-02-23T15:54:38.785Z,68.60
2019-02-23T15:57:06.733Z,68.40
2019-02-23T15:59:17.080Z,68.20
2019-02-23T16:01:34.889Z,67.90
2019-02-23T16:03:54.161Z,68.20
2019-02-23T16:06:12.427Z,68.60
2019-02-23T16:08:30.006Z,69.10
2019-02-23T16:10:46.648Z,69.60
2019-02-23T16:13:12.320Z,69.90
2019-02-23T16:15:36.630Z,70.40
2019-02-23T16:17:51.615Z,70.20
2019-02-23T16:20:08.434Z,70.00
2019-02-23T16:22:34.669Z,70.40
2019-02-23T16:24:45.710Z,71.10
2019-02-23T16:26:51.201Z,71.40
2019-02-23T16:29:09.614Z,71.40
2019-02-23T16:31:32.043Z,71.40
2019-02-23T16:33:57.563Z,71.40
2019-02-23T16:36:05.092Z,71.30
2019-02-23T16:38:15.445Z,71.90
2019-02-23T16:40:41.233Z,72.40
2019-02-23T16:43:11.302Z,72.40
2019-02-23T16:45:45.409Z,72.90
2019-02-23T16:48:05.266Z,73.40
2019-02-23T16:50:29.405Z,74.10
2019-02-23T16:52:37.621Z,74.50
2019-02-23T16:55:01.001Z,74.70
2019-02-23T16:57:20.791Z,75.50
2019-02-23T16:59:31.906Z,75.50
2019-02-23T17:02:03.339Z,76.20
2019-02-23T17:04:24.172Z,75.90
2019-02-23T17:06:33.792Z,76.30
2019-02-23T17:08:49.630Z,76.30
2019-02-23T17:11:01.341Z,76.30
2019-02-23T17:13:17.812Z,76.60
2019-02-23T17:15:36.367Z,76.70
2019-02-23T17:17:48.207Z,76.70
2019-02-23T17:20:08.996Z,76.50
2019-02-23T17:22:17.867Z,76.30
2019-02-23T17:24:26.086Z,76.80
2019-02-23T17:26:40.132Z,76.70
2019-02-23T17:28:51.747Z,77.00
2019-02-23T17:31:23.795Z,76.90
2019-02-23T17:34:02.535Z,76.40
2019-02-23T17:36:21.019Z,76.80
2019-02-23T17:38:41.250Z,77.00
2019-02-23T17:40:56.788Z,77.50
2019-02-23T17:43:08.960Z,77.60
2019-02-23T17:45:33.482Z,78.20
2019-02-23T17:48:07.776Z,78.30
2019-02-23T17:50:31.464Z,78.20
2019-02-23T17:53:01.659Z,78.60
2019-02-23T17:55:18.561Z,78.20
2019-02-23T17:57:36.252Z,77.00
2019-02-23T17:59:59.631Z,78.20
2019-02-23T18:04:58.665Z,78.00
2019-02-23T18:07:33.255Z,78.20
2019-02-23T18:09:41.549Z,78.00
2019-02-23T18:12:17.262Z,78.10
2019-02-23T18:14:15.763Z,78.40
2019-02-23T18:16:32.656Z,78.90
2019-02-23T18:18:55.436Z,79.30
2019-02-23T18:23:38.524Z,79.80
2019-02-23T18:25:58.211Z,80.10
2019-02-23T18:28:25.326Z,80.60
2019-02-23T18:30:44.034Z,81.20
2019-02-23T18:33:25.280Z,81.30
2019-02-23T18:35:51.419Z,81.50
2019-02-23T18:38:09.064Z,81.80
2019-02-23T18:40:17.771Z,81.80
2019-02-23T18:42:22.431Z,81.50
2019-02-23T18:44:29.812Z,81.70
2019-02-23T18:49:20.613Z,82.20
2019-02-23T18:51:27.364Z,82.60
2019-02-23T18:53:50.672Z,82.80
2019-02-23T18:56:10.317Z,83.00
2019-02-23T18:58:36.188Z,83.30
2019-02-23T19:00:41.886Z,83.90
2019-02-23T19:03:17.636Z,84.20
2019-02-23T19:05:54.510Z,84.80
2019-02-23T19:08:08.215Z,85.20
2019-02-23T19:10:40.112Z,85.00
2019-02-23T19:12:47.486Z,84.90
2019-02-23T19:17:35.762Z,85.20
2019-02-23T19:19:41.845Z,85.20
2019-02-23T19:22:01.153Z,85.40
2019-02-23T19:24:23.564Z,85.40
2019-02-23T19:26:38.171Z,85.80
2019-02-23T19:28:48.417Z,86.00
2019-02-23T19:31:16.834Z,86.20
2019-02-23T19:33:39.404Z,86.40
2019-02-23T19:36:02.039Z,86.00
2019-02-23T19:38:32.223Z,85.80
2019-02-23T19:42:53.932Z,85.70
2019-02-23T19:47:49.941Z,85.90
2019-02-23T19:50:12.110Z,85.70
2019-02-23T19:52:35.513Z,85.50
2019-02-23T20:00:00.148Z,85.30
2019-02-23T20:02:19.480Z,85.50
2019-02-23T20:04:47.365Z,85.40
2019-02-23T20:07:09.748Z,85.00
2019-02-23T20:09:48.523Z,84.50
2019-02-23T20:12:23.705Z,84.20
2019-02-23T20:14:21.076Z,84.20
2019-02-23T20:19:09.334Z,84.10
2019-02-23T20:21:26.015Z,84.10
2019-02-23T20:23:44.665Z,83.70
2019-02-23T20:26:02.198Z,83.80
2019-02-23T20:28:18.879Z,84.20
2019-02-23T20:30:37.702Z,83.80
2019-02-23T20:32:56.844Z,83.40
2019-02-23T20:35:16.129Z,83.50
2019-02-23T20:37:32.182Z,84.50
2019-02-23T20:39:57.259Z,83.60
2019-02-23T20:42:17.856Z,83.90
2019-02-23T20:47:11.855Z,83.60
2019-02-23T20:52:36.492Z,83.20
2019-02-23T21:08:35.129Z,82.50
2019-02-23T21:10:55.741Z,82.80
2019-02-23T21:13:33.673Z,82.60
2019-02-23T21:18:28.648Z,82.60
2019-02-23T21:21:59.176Z,82.40
2019-02-23T21:24:42.169Z,82.10
2019-02-23T21:26:46.256Z,81.60
2019-02-23T21:29:07.862Z,81.40
2019-02-23T21:31:29.525Z,80.60
2019-02-23T21:36:38.649Z,81.00
2019-02-23T21:39:02.729Z,80.20
2019-02-23T21:41:21.824Z,80.40
2019-02-23T21:43:42.568Z,80.60
2019-02-23T21:48:43.564Z,80.40
2019-02-23T21:51:05.489Z,80.80
2019-02-23T21:53:23.225Z,81.20
2019-02-23T21:55:42.010Z,81.00
2019-02-23T21:57:59.876Z,81.00
2019-02-23T22:00:16.167Z,80.60
2019-02-23T22:02:39.006Z,80.40
2019-02-23T22:08:30.580Z,80.60
2019-02-23T22:10:50.538Z,80.80
2019-02-23T22:12:56.572Z,80.60
2019-02-23T22:15:02.520Z,81.00
2019-02-23T22:20:01.266Z,81.30
2019-02-23T22:22:21.873Z,81.00
2019-02-23T22:25:01.099Z,80.90
2019-02-23T22:27:09.452Z,81.00
2019-02-23T22:32:20.700Z,81.40
2019-02-23T22:34:43.616Z,81.60
2019-02-23T22:37:01.215Z,81.40
2019-02-23T22:42:14.130Z,81.80
2019-02-23T22:44:32.107Z,81.80
2019-02-23T22:46:51.408Z,81.80
2019-02-23T22:49:26.262Z,81.60
2019-02-23T22:51:36.062Z,81.50
2019-02-23T22:56:26.408Z,81.60
2019-02-23T22:58:44.795Z,81.50
2019-02-23T23:03:48.050Z,81.50
2019-02-23T23:06:45.279Z,81.40
2019-02-23T23:08:25.032Z,81.60
2019-02-23T23:10:58.549Z,81.40
2019-02-23T23:13:25.247Z,81.80
2019-02-23T23:19:08.336Z,82.00
2019-02-23T23:20:49.547Z,82.20
2019-02-23T23:22:43.869Z,82.80
2019-02-23T23:25:02.637Z,82.90
2019-02-23T23:32:43.802Z,83.00
2019-02-23T23:35:00.318Z,83.10
2019-02-23T23:37:22.058Z,83.00
2019-02-23T23:40:16.578Z,83.10
2019-02-23T23:42:08.328Z,83.30
2019-02-23T23:44:25.019Z,83.40
2019-02-23T23:47:25.413Z,83.30
2019-02-23T23:49:10.963Z,83.50
2019-02-23T23:51:39.297Z,83.30
2019-02-23T23:54:01.239Z,83.40
2019-02-23T23:56:08.926Z,83.60
2019-02-23T23:58:35.296Z,83.40
